Time;durP1;ratioP1;P1;durP2;ratioP2;P2;SDS_P1;SDS_P2;PMS_P1;PMS_P2;Temp;Humidity;BMP_temperature;BMP_pressure;BME280_temperature;BME280_humidity;BME280_pressure;Samples;Min_cycle;Max_cycle;Signal;HPM_P1;HPM_P2
2022/12/25 00:02:24;;;;;;;12.07;8.15;;;;;;;;;;5034757;28;20533;-69
2022/12/25 00:04:50;;;;;;;10.82;8.23;;;;;;;;;;5034942;28;20217;-68
2022/12/25 00:07:18;;;;;;;15.95;8.18;;;;;;;;;;5035362;28;20218;-68
2022/12/25 00:09:44;;;;;;;13.23;8.00;;;;;;;;;;5034645;28;20251;-69
2022/12/25 00:12:10;;;;;;;15.15;8.65;;;;;;;;;;5034919;28;20210;-68
2022/12/25 00:14:36;;;;;;;11.85;8.32;;;;;;;;;;5035174;28;20205;-69
2022/12/25 00:17:03;;;;;;;13.18;8.75;;;;;;;;;;5034749;28;20209;-68
2022/12/25 00:19:29;;;;;;;14.18;8.32;;;;;;;;;;5034717;28;20511;-68
2022/12/25 00:21:55;;;;;;;10.90;8.93;;;;;;;;;;5034649;28;20259;-68
2022/12/25 00:24:23;;;;;;;15.80;9.15;;;;;;;;;;5034812;28;20210;-68
2022/12/25 00:26:49;;;;;;;12.13;8.07;;;;;;;;;;5035003;28;20237;-68
2022/12/25 00:29:15;;;;;;;12.75;8.32;;;;;;;;;;5035101;28;20234;-68
2022/12/25 00:31:41;;;;;;;12.65;8.07;;;;;;;;;;5034434;28;20213;-68
2022/12/25 00:34:08;;;;;;;14.63;8.63;;;;;;;;;;5034593;28;20214;-69
2022/12/25 00:36:34;;;;;;;13.82;9.88;;;;;;;;;;5034677;28;20504;-69
2022/12/25 00:39:00;;;;;;;16.30;9.02;;;;;;;;;;5034196;28;20210;-68
2022/12/25 00:44:13;;;;;;;11.38;8.93;;;;;;;;;;5034485;28;20208;-69
2022/12/25 00:46:39;;;;;;;13.60;9.10;;;;;;;;;;5034090;28;20226;-69
2022/12/25 00:49:05;;;;;;;13.98;9.07;;;;;;;;;;5033794;28;20210;-69
2022/12/25 00:51:32;;;;;;;13.95;9.23;;;;;;;;;;5033910;28;20221;-69
2022/12/25 00:53:58;;;;;;;14.88;8.90;;;;;;;;;;5034154;28;20544;-69
2022/12/25 00:56:25;;;;;;;15.38;9.40;;;;;;;;;;5034279;28;20382;-69
2022/12/25 00:58:53;;;;;;;17.92;8.63;;;;;;;;;;5034188;28;20209;-69
2022/12/25 01:01:19;;;;;;;15.13;9.77;;;;;;;;;;5034040;28;20214;-68
2022/12/25 01:03:45;;;;;;;21.02;10.27;;;;;;;;;;5034119;28;20218;-68
2022/12/25 01:06:12;;;;;;;15.57;9.25;;;;;;;;;;5033989;28;20409;-68
2022/12/25 01:10:20;;;;;;;20.80;10.13;;;;;;;;;;5033552;28;20388;-69
2022/12/25 01:11:24;;;;;;;18.67;10.02;;;;;;;;;;5033315;28;20271;-68
2022/12/25 01:13:52;;;;;;;19.50;10.30;;;;;;;;;;5034005;28;20210;-69
2022/12/25 01:16:18;;;;;;;16.95;9.82;;;;;;;;;;5033999;28;20217;-69
2022/12/25 01:18:45;;;;;;;17.85;9.77;;;;;;;;;;5033888;28;20738;-68
2022/12/25 01:21:14;;;;;;;16.85;10.00;;;;;;;;;;5033166;28;20218;-68
2022/12/25 01:23:42;;;;;;;13.45;8.85;;;;;;;;;;5033998;28;20217;-69
2022/12/25 01:26:09;;;;;;;11.18;8.20;;;;;;;;;;5034125;28;20518;-68
2022/12/25 01:28:36;;;;;;;14.25;8.45;;;;;;;;;;5033693;28;20552;-68
2022/12/25 01:31:04;;;;;;;14.85;8.35;;;;;;;;;;5033384;28;20210;-68
2022/12/25 01:33:30;;;;;;;11.95;8.88;;;;;;;;;;5033827;28;20262;-69
2022/12/25 01:35:57;;;;;;;12.68;8.65;;;;;;;;;;5033727;28;20214;-68
2022/12/25 01:38:23;;;;;;;12.82;9.00;;;;;;;;;;5033255;28;20248;-69
2022/12/25 01:40:49;;;;;;;11.77;9.07;;;;;;;;;;5033418;28;20214;-68
2022/12/25 01:43:21;;;;;;;14.45;8.60;;;;;;;;;;5033347;28;20569;-69
2022/12/25 01:45:48;;;;;;;12.98;7.97;;;;;;;;;;5033636;28;20206;-68
2022/12/25 01:48:18;;;;;;;10.10;7.57;;;;;;;;;;5032862;28;20225;-68
2022/12/25 01:50:45;;;;;;;15.70;8.50;;;;;;;;;;5033282;28;20217;-69
2022/12/25 01:53:12;;;;;;;19.45;9.25;;;;;;;;;;5033343;28;20209;-69
2022/12/25 01:55:39;;;;;;;17.20;9.23;;;;;;;;;;5034041;28;20521;-69
2022/12/25 01:58:05;;;;;;;14.88;8.50;;;;;;;;;;5037125;28;20205;-68
2022/12/25 02:00:31;;;;;;;18.25;9.10;;;;;;;;;;5036879;28;20251;-68
2022/12/25 02:02:58;;;;;;;16.02;8.85;;;;;;;;;;5037229;28;20362;-69
2022/12/25 02:05:27;;;;;;;15.65;8.65;;;;;;;;;;5036904;28;20210;-68
2022/12/25 02:07:54;;;;;;;19.70;9.15;;;;;;;;;;5037276;27;20556;-69
2022/12/25 02:10:20;;;;;;;12.75;7.55;;;;;;;;;;5036269;27;20247;-69
2022/12/25 02:12:47;;;;;;;12.68;7.82;;;;;;;;;;5036813;28;20216;-69
2022/12/25 02:15:15;;;;;;;12.65;8.15;;;;;;;;;;5036912;28;20271;-69
2022/12/25 02:17:47;;;;;;;14.68;8.07;;;;;;;;;;5036971;28;20442;-69
2022/12/25 02:20:27;;;;;;;10.13;7.15;;;;;;;;;;5036183;28;20288;-68
2022/12/25 02:23:03;;;;;;;13.27;8.27;;;;;;;;;;5036888;27;20241;-68
2022/12/25 02:25:37;;;;;;;10.27;7.28;;;;;;;;;;5037177;27;20262;-68
2022/12/25 02:28:11;;;;;;;8.45;7.35;;;;;;;;;;5036082;28;20233;-68
2022/12/25 02:30:41;;;;;;;10.90;7.15;;;;;;;;;;5036503;28;20499;-69
2022/12/25 02:35:56;;;;;;;11.80;7.53;;;;;;;;;;5027452;28;20271;-69
2022/12/25 02:38:25;;;;;;;12.13;7.82;;;;;;;;;;5035378;28;20210;-69
2022/12/25 02:40:52;;;;;;;12.98;7.65;;;;;;;;;;5036193;28;20554;-68
2022/12/25 03:08:12;;;;;;;9.15;6.15;;;;;;;;;;5034144;28;20258;-69
2022/12/25 03:13:27;;;;;;;13.68;6.07;;;;;;;;;;5035349;28;20428;-69
2022/12/25 03:18:38;;;;;;;9.32;6.53;;;;;;;;;;5035278;28;20441;-69
2022/12/25 03:32:03;;;;;;;7.82;5.88;;;;;;;;;;5035442;28;20278;-69
2022/12/25 04:38:19;;;;;;;5.28;3.85;;;;;;;;;;5009830;28;20527;-69
2022/12/25 04:40:45;;;;;;;4.22;3.58;;;;;;;;;;5034915;28;20209;-69
2022/12/25 04:43:12;;;;;;;3.92;3.40;;;;;;;;;;5034390;28;20213;-69
2022/12/25 04:45:38;;;;;;;8.85;5.88;;;;;;;;;;5034539;28;20214;-69
2022/12/25 04:48:04;;;;;;;5.22;4.13;;;;;;;;;;5034053;28;20229;-69
2022/12/25 04:50:31;;;;;;;3.85;3.22;;;;;;;;;;5034251;28;20214;-69
2022/12/25 04:52:57;;;;;;;3.67;3.30;;;;;;;;;;5033882;28;20217;-69
2022/12/25 04:55:24;;;;;;;6.78;3.55;;;;;;;;;;5033924;28;20419;-69
2022/12/25 04:57:51;;;;;;;4.25;3.47;;;;;;;;;;5034076;28;20205;-68
2022/12/25 05:00:17;;;;;;;3.92;3.63;;;;;;;;;;5033744;28;20214;-68
2022/12/25 05:02:43;;;;;;;4.60;3.13;;;;;;;;;;5034058;28;20273;-68
2022/12/25 05:05:10;;;;;;;4.32;3.55;;;;;;;;;;5034288;28;20445;-69
2022/12/25 05:07:36;;;;;;;4.03;3.60;;;;;;;;;;5034156;28;20225;-69
2022/12/25 05:10:03;;;;;;;3.60;3.38;;;;;;;;;;5033735;28;20254;-69
2022/12/25 05:12:30;;;;;;;4.65;3.55;;;;;;;;;;5034159;28;20227;-69
2022/12/25 05:14:56;;;;;;;3.70;3.42;;;;;;;;;;5033777;28;20209;-69
2022/12/25 05:17:23;;;;;;;3.28;3.10;;;;;;;;;;5034230;28;20251;-69
2022/12/25 05:19:49;;;;;;;6.10;3.75;;;;;;;;;;5033766;28;20252;-69
2022/12/25 05:22:15;;;;;;;4.18;3.55;;;;;;;;;;5033780;27;20543;-69
2022/12/25 05:24:41;;;;;;;3.72;3.40;;;;;;;;;;5033624;28;20213;-69
2022/12/25 05:27:07;;;;;;;4.88;3.33;;;;;;;;;;5033898;28;20209;-69
2022/12/25 05:29:35;;;;;;;4.28;3.65;;;;;;;;;;5033905;28;20291;-69
2022/12/25 05:32:01;;;;;;;4.03;3.40;;;;;;;;;;5033061;28;20271;-69
2022/12/25 05:34:27;;;;;;;4.28;3.67;;;;;;;;;;5033323;28;20210;-69
2022/12/25 05:36:55;;;;;;;3.83;3.45;;;;;;;;;;5033630;28;20407;-69
2022/12/25 05:39:21;;;;;;;4.18;3.80;;;;;;;;;;5033049;28;20368;-69
2022/12/25 05:41:47;;;;;;;3.72;3.42;;;;;;;;;;5033550;28;20441;-69
2022/12/25 05:44:14;;;;;;;3.92;3.55;;;;;;;;;;5032780;28;20246;-69
2022/12/25 05:46:41;;;;;;;4.00;3.70;;;;;;;;;;5033420;28;20231;-69
2022/12/25 05:49:08;;;;;;;4.20;3.90;;;;;;;;;;5032880;28;20580;-69
2022/12/25 05:51:34;;;;;;;3.55;3.28;;;;;;;;;;5033744;28;20661;-69
2022/12/25 05:54:00;;;;;;;4.10;3.80;;;;;;;;;;5033314;28;20214;-69
2022/12/25 05:56:26;;;;;;;4.13;3.67;;;;;;;;;;5033400;28;20278;-69
2022/12/25 05:58:53;;;;;;;6.85;3.85;;;;;;;;;;5033085;28;20198;-68
2022/12/25 06:01:20;;;;;;;4.25;3.47;;;;;;;;;;5033228;28;20202;-68
2022/12/25 06:03:47;;;;;;;4.32;3.90;;;;;;;;;;5032635;28;20573;-68
2022/12/25 06:06:14;;;;;;;3.90;3.70;;;;;;;;;;5032979;28;20267;-68
2022/12/25 06:08:40;;;;;;;4.50;4.10;;;;;;;;;;5032577;28;20545;-68
2022/12/25 06:11:07;;;;;;;4.78;3.55;;;;;;;;;;5033201;28;20247;-68
2022/12/25 06:13:34;;;;;;;3.83;3.63;;;;;;;;;;5032456;28;20271;-69
2022/12/25 06:16:03;;;;;;;5.18;4.03;;;;;;;;;;5032976;28;20587;-69
2022/12/25 06:18:29;;;;;;;5.80;3.95;;;;;;;;;;5032523;28;20206;-69
2022/12/25 06:20:56;;;;;;;3.97;3.58;;;;;;;;;;5033295;28;20221;-69
2022/12/25 06:23:23;;;;;;;4.68;4.38;;;;;;;;;;5032885;28;20247;-69
2022/12/25 06:25:49;;;;;;;5.32;4.85;;;;;;;;;;5032800;28;20210;-68
2022/12/25 06:28:15;;;;;;;6.82;6.22;;;;;;;;;;5032302;28;21339;-68
2022/12/25 06:30:41;;;;;;;5.55;5.15;;;;;;;;;;5032591;28;20239;-69
2022/12/25 06:33:07;;;;;;;8.43;4.60;;;;;;;;;;5032709;28;20253;-69
2022/12/25 06:35:34;;;;;;;3.95;3.75;;;;;;;;;;5033358;28;20209;-69
2022/12/25 06:38:01;;;;;;;6.68;4.10;;;;;;;;;;5032994;28;20206;-69
2022/12/25 06:40:27;;;;;;;4.60;4.30;;;;;;;;;;5032962;28;20210;-69
2022/12/25 06:42:54;;;;;;;4.20;3.80;;;;;;;;;;5034689;28;20475;-69
2022/12/25 06:45:20;;;;;;;7.57;6.80;;;;;;;;;;5036551;28;20517;-69
2022/12/25 06:47:46;;;;;;;8.40;7.70;;;;;;;;;;5036324;28;20225;-69
2022/12/25 06:50:12;;;;;;;8.88;6.82;;;;;;;;;;5035644;28;20577;-69
2022/12/25 06:52:39;;;;;;;6.28;5.68;;;;;;;;;;5036184;28;20684;-69
2022/12/25 06:55:07;;;;;;;5.07;4.75;;;;;;;;;;5035621;28;20251;-71
2022/12/25 06:57:33;;;;;;;6.05;5.55;;;;;;;;;;5036083;28;20452;-70
2022/12/25 06:59:59;;;;;;;8.07;5.45;;;;;;;;;;5035767;28;20566;-70
2022/12/25 07:02:26;;;;;;;4.88;4.57;;;;;;;;;;5035908;28;20210;-70
2022/12/25 07:04:52;;;;;;;6.07;4.22;;;;;;;;;;5035958;28;20210;-70
2022/12/25 07:07:19;;;;;;;4.18;3.88;;;;;;;;;;5036149;28;20243;-70
2022/12/25 07:09:45;;;;;;;4.47;4.00;;;;;;;;;;5036003;28;20247;-70
2022/12/25 07:12:15;;;;;;;4.65;4.20;;;;;;;;;;5036185;28;20214;-71
2022/12/25 07:14:42;;;;;;;4.13;3.83;;;;;;;;;;5035951;28;20250;-70
2022/12/25 07:17:08;;;;;;;4.35;4.03;;;;;;;;;;5035678;28;20213;-70
2022/12/25 07:19:34;;;;;;;4.32;4.03;;;;;;;;;;5035322;28;20206;-70
2022/12/25 07:22:00;;;;;;;4.80;4.28;;;;;;;;;;5035658;28;20222;-70
2022/12/25 07:24:27;;;;;;;5.78;4.25;;;;;;;;;;5035507;28;20209;-70
2022/12/25 07:26:53;;;;;;;5.13;3.88;;;;;;;;;;5035805;28;20210;-70
2022/12/25 07:29:21;;;;;;;4.38;3.97;;;;;;;;;;5035019;28;20275;-70
2022/12/25 07:31:47;;;;;;;4.32;3.80;;;;;;;;;;5035613;28;20220;-70
2022/12/25 07:34:13;;;;;;;4.10;3.80;;;;;;;;;;5035299;28;20217;-71
2022/12/25 07:36:39;;;;;;;4.03;3.72;;;;;;;;;;5035818;28;20267;-70
2022/12/25 07:39:06;;;;;;;5.28;4.03;;;;;;;;;;5035625;28;20609;-70
2022/12/25 07:41:32;;;;;;;4.40;3.55;;;;;;;;;;5035528;28;20247;-70
2022/12/25 07:43:58;;;;;;;4.03;3.63;;;;;;;;;;5034952;28;20210;-70
2022/12/25 07:46:27;;;;;;;4.40;4.03;;;;;;;;;;5035313;28;20210;-69
2022/12/25 07:48:53;;;;;;;4.47;4.07;;;;;;;;;;5035008;28;20278;-69
2022/12/25 07:51:19;;;;;;;4.45;3.45;;;;;;;;;;5035400;28;20214;-69
2022/12/25 07:53:46;;;;;;;5.75;3.70;;;;;;;;;;5034210;28;20478;-69
2022/12/25 07:56:13;;;;;;;4.32;3.42;;;;;;;;;;5035207;28;20548;-69
2022/12/25 07:58:39;;;;;;;4.97;4.63;;;;;;;;;;5034563;28;20237;-69
2022/12/25 08:01:06;;;;;;;8.60;4.72;;;;;;;;;;5035758;28;20210;-69
2022/12/25 08:03:34;;;;;;;5.57;4.88;;;;;;;;;;5035180;28;20254;-69
2022/12/25 08:06:01;;;;;;;5.30;4.82;;;;;;;;;;5035377;28;20214;-69
2022/12/25 08:08:27;;;;;;;5.97;5.47;;;;;;;;;;5034539;28;20228;-69
2022/12/25 08:10:54;;;;;;;7.10;5.95;;;;;;;;;;5035012;28;20528;-69
2022/12/25 08:13:20;;;;;;;6.75;5.90;;;;;;;;;;5034700;28;20522;-69
2022/12/25 08:15:46;;;;;;;6.50;5.75;;;;;;;;;;5034608;28;20247;-70
2022/12/25 08:18:13;;;;;;;9.02;8.13;;;;;;;;;;5034350;28;20442;-69
2022/12/25 08:20:40;;;;;;;8.98;7.20;;;;;;;;;;5034705;28;20260;-69
2022/12/25 08:23:07;;;;;;;7.63;5.60;;;;;;;;;;5034767;27;20218;-70
2022/12/25 08:25:33;;;;;;;9.82;5.43;;;;;;;;;;5034290;28;20266;-70
2022/12/25 08:27:59;;;;;;;7.07;5.50;;;;;;;;;;5034625;28;20267;-69
2022/12/25 08:30:26;;;;;;;8.05;6.20;;;;;;;;;;5034765;28;20411;-69
2022/12/25 08:32:52;;;;;;;10.70;5.95;;;;;;;;;;5034539;28;20206;-69
2022/12/25 08:35:18;;;;;;;6.68;5.25;;;;;;;;;;5034240;28;20410;-69
2022/12/25 08:37:46;;;;;;;5.50;4.93;;;;;;;;;;5034461;28;20569;-69
2022/12/25 08:40:12;;;;;;;6.10;5.22;;;;;;;;;;5034117;28;20206;-69
2022/12/25 08:42:39;;;;;;;10.32;6.10;;;;;;;;;;5034459;28;20213;-69
2022/12/25 08:45:05;;;;;;;8.30;6.28;;;;;;;;;;5034055;28;20214;-69
2022/12/25 08:47:31;;;;;;;10.63;6.30;;;;;;;;;;5034497;28;20450;-70
2022/12/25 08:49:58;;;;;;;7.72;6.03;;;;;;;;;;5034163;27;20549;-71
2022/12/25 08:52:24;;;;;;;8.27;6.30;;;;;;;;;;5034742;28;20213;-70
2022/12/25 08:54:52;;;;;;;9.13;5.75;;;;;;;;;;5034673;28;20237;-70
2022/12/25 08:57:18;;;;;;;8.43;5.88;;;;;;;;;;5034736;28;20208;-70
2022/12/25 08:59:44;;;;;;;6.15;5.68;;;;;;;;;;5034426;28;20447;-70
2022/12/25 09:02:11;;;;;;;7.63;5.85;;;;;;;;;;5034365;27;20294;-70
2022/12/25 09:04:37;;;;;;;8.30;6.65;;;;;;;;;;5033875;28;20363;-71
2022/12/25 09:07:04;;;;;;;7.03;6.43;;;;;;;;;;5032956;28;20475;-70
2022/12/25 09:09:30;;;;;;;6.75;6.05;;;;;;;;;;5033695;27;20553;-70
2022/12/25 09:11:58;;;;;;;5.95;5.45;;;;;;;;;;5034059;28;20243;-70
2022/12/25 09:14:24;;;;;;;6.32;5.30;;;;;;;;;;5033473;28;20255;-70
2022/12/25 09:16:50;;;;;;;6.30;5.63;;;;;;;;;;5034273;28;20258;-70
2022/12/25 09:19:17;;;;;;;5.18;4.70;;;;;;;;;;5034024;28;20209;-70
2022/12/25 09:21:43;;;;;;;5.88;5.00;;;;;;;;;;5034250;28;20521;-70
2022/12/25 09:24:09;;;;;;;5.97;5.38;;;;;;;;;;5033303;28;20213;-70
2022/12/25 09:26:36;;;;;;;8.15;7.43;;;;;;;;;;5033909;28;20209;-70
2022/12/25 09:29:04;;;;;;;9.18;5.82;;;;;;;;;;5033271;28;20544;-70
2022/12/25 09:31:30;;;;;;;6.00;5.50;;;;;;;;;;5034070;28;20210;-70
2022/12/25 09:33:57;;;;;;;6.40;5.32;;;;;;;;;;5033509;28;20214;-70
2022/12/25 09:36:23;;;;;;;6.18;5.57;;;;;;;;;;5033397;28;20210;-71
2022/12/25 09:38:50;;;;;;;7.07;6.13;;;;;;;;;;5033753;28;20206;-70
2022/12/25 09:41:17;;;;;;;6.47;5.88;;;;;;;;;;5034136;28;20209;-70
2022/12/25 09:43:46;;;;;;;11.23;6.15;;;;;;;;;;5034035;28;20210;-70
2022/12/25 09:46:15;;;;;;;6.38;5.78;;;;;;;;;;5033970;28;20305;-70
2022/12/25 09:48:44;;;;;;;5.85;5.35;;;;;;;;;;5033819;28;20226;-71
2022/12/25 09:51:13;;;;;;;7.10;6.45;;;;;;;;;;5034037;28;20210;-71
2022/12/25 09:53:40;;;;;;;6.78;6.05;;;;;;;;;;5033958;28;20218;-70
2022/12/25 09:56:10;;;;;;;7.20;6.07;;;;;;;;;;5033442;28;20286;-70
2022/12/25 09:58:36;;;;;;;7.07;6.40;;;;;;;;;;5033591;28;20213;-70
2022/12/25 10:01:06;;;;;;;7.38;6.68;;;;;;;;;;5033531;28;20210;-70
2022/12/25 10:03:44;;;;;;;7.65;5.63;;;;;;;;;;5033117;28;20443;-70
2022/12/25 10:06:13;;;;;;;5.72;5.32;;;;;;;;;;5033538;28;20348;-70
2022/12/25 10:09:06;;;;;;;6.20;5.38;;;;;;;;;;5033558;28;20210;-70
2022/12/25 10:11:39;;;;;;;5.78;5.13;;;;;;;;;;5044925;28;20209;-70
2022/12/25 10:14:10;;;;;;;6.13;5.53;;;;;;;;;;5033429;28;20796;-71
2022/12/25 10:16:40;;;;;;;6.50;5.90;;;;;;;;;;5033893;28;20423;-70
2022/12/25 10:19:21;;;;;;;6.30;5.75;;;;;;;;;;5036841;28;20559;-70
2022/12/25 10:21:48;;;;;;;6.97;5.40;;;;;;;;;;5036917;28;20217;-70
2022/12/25 10:24:22;;;;;;;5.43;4.93;;;;;;;;;;5036458;28;20521;-70
2022/12/25 10:26:50;;;;;;;5.30;4.80;;;;;;;;;;5036768;28;20444;-70
2022/12/25 10:29:18;;;;;;;5.93;5.43;;;;;;;;;;5036058;28;20252;-70
2022/12/25 10:31:45;;;;;;;5.38;4.78;;;;;;;;;;5036876;28;20216;-70
2022/12/25 10:34:12;;;;;;;6.65;5.13;;;;;;;;;;5036520;28;20235;-70
2022/12/25 10:36:40;;;;;;;7.63;6.82;;;;;;;;;;5036577;28;20217;-70
2022/12/25 10:39:07;;;;;;;6.68;5.80;;;;;;;;;;5036271;28;20205;-70
2022/12/25 10:41:39;;;;;;;4.90;4.50;;;;;;;;;;5037164;28;20216;-70
2022/12/25 10:44:12;;;;;;;5.00;4.57;;;;;;;;;;5036394;28;20412;-70
2022/12/25 10:46:38;;;;;;;4.25;3.85;;;;;;;;;;5036056;28;20323;-70
2022/12/25 10:49:05;;;;;;;3.92;3.65;;;;;;;;;;5036187;28;20404;-70
2022/12/25 10:51:33;;;;;;;3.47;3.28;;;;;;;;;;5036505;28;20221;-70
2022/12/25 10:54:01;;;;;;;4.13;3.85;;;;;;;;;;5036352;28;20251;-70
2022/12/25 10:56:27;;;;;;;4.55;4.15;;;;;;;;;;5036643;27;20210;-70
2022/12/25 10:59:03;;;;;;;4.93;4.47;;;;;;;;;;5036024;28;20210;-70
2022/12/25 11:01:29;;;;;;;4.10;3.70;;;;;;;;;;5036301;28;20213;-70
2022/12/25 11:03:56;;;;;;;3.28;3.08;;;;;;;;;;5036382;28;20251;-70
2022/12/25 11:06:23;;;;;;;5.10;3.88;;;;;;;;;;5036236;28;20466;-70
2022/12/25 11:08:51;;;;;;;4.95;4.30;;;;;;;;;;5035499;28;20254;-70
2022/12/25 11:11:20;;;;;;;8.95;6.70;;;;;;;;;;5036303;28;20209;-70
2022/12/25 11:13:48;;;;;;;7.47;5.63;;;;;;;;;;5035816;28;20293;-70
2022/12/25 11:16:24;;;;;;;4.55;3.92;;;;;;;;;;5036132;28;20250;-70
2022/12/25 11:18:52;;;;;;;4.40;3.72;;;;;;;;;;5036140;28;20240;-70
2022/12/25 11:21:19;;;;;;;6.32;4.63;;;;;;;;;;5036150;28;20423;-70
2022/12/25 11:23:46;;;;;;;4.35;3.95;;;;;;;;;;5035645;28;20255;-71
2022/12/25 11:26:13;;;;;;;4.30;4.00;;;;;;;;;;5035738;28;20384;-71
2022/12/25 11:28:41;;;;;;;3.92;3.60;;;;;;;;;;5034322;28;20226;-71
2022/12/25 11:31:09;;;;;;;4.28;3.97;;;;;;;;;;5035483;28;20225;-70
2022/12/25 11:33:38;;;;;;;6.05;4.40;;;;;;;;;;5035528;28;20210;-70
2022/12/25 11:36:09;;;;;;;4.22;3.80;;;;;;;;;;5035619;28;20216;-70
2022/12/25 11:38:35;;;;;;;6.45;4.15;;;;;;;;;;5035232;28;20213;-70
2022/12/25 11:41:03;;;;;;;4.68;3.38;;;;;;;;;;5035584;28;20206;-70
2022/12/25 11:43:32;;;;;;;5.75;3.83;;;;;;;;;;5034992;28;20217;-70
2022/12/25 11:46:05;;;;;;;4.07;3.70;;;;;;;;;;5035368;28;20556;-70
2022/12/25 11:48:33;;;;;;;4.18;3.78;;;;;;;;;;5034917;28;20213;-70
2022/12/25 11:51:01;;;;;;;3.40;3.20;;;;;;;;;;5035374;28;20225;-71
2022/12/25 11:53:29;;;;;;;5.00;3.38;;;;;;;;;;5035372;28;20255;-71
2022/12/25 11:55:56;;;;;;;3.30;3.10;;;;;;;;;;5034946;28;20243;-71
2022/12/25 11:58:25;;;;;;;2.90;2.70;;;;;;;;;;5035018;28;20214;-71
2022/12/25 12:00:52;;;;;;;2.90;2.80;;;;;;;;;;5035271;28;20206;-71
2022/12/25 12:03:21;;;;;;;6.47;3.50;;;;;;;;;;5035097;28;20266;-71
2022/12/25 12:05:50;;;;;;;3.10;2.90;;;;;;;;;;5034841;28;20213;-71
2022/12/25 12:08:16;;;;;;;4.63;2.70;;;;;;;;;;5034958;28;20214;-71
2022/12/25 12:10:56;;;;;;;2.78;2.58;;;;;;;;;;5035597;28;20271;-71
2022/12/25 12:13:28;;;;;;;2.50;2.30;;;;;;;;;;5034913;28;20254;-71
2022/12/25 12:15:54;;;;;;;4.70;3.15;;;;;;;;;;5034841;28;20246;-71
2022/12/25 12:18:23;;;;;;;2.65;2.45;;;;;;;;;;5034635;28;20216;-71
2022/12/25 12:20:57;;;;;;;4.05;2.85;;;;;;;;;;5034500;28;20210;-59
2022/12/25 12:23:24;;;;;;;4.05;2.70;;;;;;;;;;5034665;28;20217;-57
2022/12/25 12:25:50;;;;;;;3.10;2.80;;;;;;;;;;5034411;28;20218;-59
2022/12/25 12:28:21;;;;;;;2.60;2.50;;;;;;;;;;5034276;28;20226;-55
2022/12/25 12:30:56;;;;;;;2.83;2.63;;;;;;;;;;5034619;28;20230;-58
2022/12/25 12:33:26;;;;;;;3.00;2.80;;;;;;;;;;5034227;28;20217;-58
2022/12/25 12:35:52;;;;;;;3.20;3.00;;;;;;;;;;5034483;28;20521;-57
2022/12/25 12:38:20;;;;;;;2.95;2.78;;;;;;;;;;5034237;28;20255;-60
2022/12/25 12:40:51;;;;;;;4.60;3.17;;;;;;;;;;5034544;28;20213;-60
2022/12/25 12:43:24;;;;;;;3.38;2.88;;;;;;;;;;5034593;28;20443;-60
2022/12/25 12:45:55;;;;;;;4.22;3.22;;;;;;;;;;5034391;28;20214;-60
2022/12/25 12:48:24;;;;;;;3.17;2.90;;;;;;;;;;5034186;28;20214;-58
2022/12/25 12:51:01;;;;;;;4.03;2.63;;;;;;;;;;5034484;28;20270;-59
2022/12/25 12:53:29;;;;;;;3.08;2.75;;;;;;;;;;5034279;28;20300;-59
2022/12/25 12:55:55;;;;;;;3.30;3.00;;;;;;;;;;5034088;28;20270;-57
2022/12/25 12:58:27;;;;;;;2.95;2.65;;;;;;;;;;5033925;28;20209;-59
2022/12/25 13:00:57;;;;;;;2.88;2.70;;;;;;;;;;5034231;27;20206;-59
2022/12/25 13:03:31;;;;;;;2.70;2.60;;;;;;;;;;5034003;28;20213;-59
2022/12/25 13:06:03;;;;;;;2.30;2.10;;;;;;;;;;5033958;28;20255;-59
2022/12/25 13:08:33;;;;;;;2.45;2.28;;;;;;;;;;5030336;28;20512;-59
2022/12/25 13:11:09;;;;;;;2.10;2.00;;;;;;;;;;5024273;28;20233;-59
2022/12/25 13:13:37;;;;;;;2.40;2.20;;;;;;;;;;5031606;28;20213;-57
2022/12/25 13:16:03;;;;;;;3.78;2.42;;;;;;;;;;5034065;28;20421;-57
2022/12/25 13:18:30;;;;;;;19.73;13.50;;;;;;;;;;5034012;28;20210;-59
2022/12/25 13:20:58;;;;;;;6.80;5.50;;;;;;;;;;5034059;28;20217;-59
2022/12/25 13:23:27;;;;;;;8.68;6.45;;;;;;;;;;5033704;28;20241;-59
2022/12/25 13:25:54;;;;;;;4.10;3.80;;;;;;;;;;5033776;28;20209;-59
2022/12/25 13:28:24;;;;;;;3.20;3.00;;;;;;;;;;5033528;28;20230;-57
2022/12/25 13:30:51;;;;;;;2.30;2.08;;;;;;;;;;5033787;28;20560;-59
2022/12/25 13:33:18;;;;;;;4.43;3.78;;;;;;;;;;5033629;28;20421;-59
2022/12/25 13:35:44;;;;;;;2.67;2.47;;;;;;;;;;5033121;28;20578;-59
2022/12/25 13:38:14;;;;;;;2.75;2.55;;;;;;;;;;5033243;28;20213;-59
2022/12/25 13:42:04;;;;;;;2.75;2.28;;;;;;;;;;5033937;28;20206;-58
2022/12/25 13:43:33;;;;;;;4.03;2.90;;;;;;;;;;5033511;28;20662;-58
2022/12/25 13:45:59;;;;;;;2.70;2.60;;;;;;;;;;5033499;28;20254;-58
2022/12/25 13:48:25;;;;;;;2.80;2.58;;;;;;;;;;5033458;28;20251;-58
2022/12/25 13:50:56;;;;;;;2.70;2.60;;;;;;;;;;5034091;28;20402;-59
2022/12/25 13:53:22;;;;;;;3.38;2.63;;;;;;;;;;5039723;28;20216;-58
2022/12/25 13:55:51;;;;;;;2.53;2.42;;;;;;;;;;5040241;27;20209;-58
2022/12/25 13:58:22;;;;;;;2.90;2.70;;;;;;;;;;5039924;27;20536;-58
2022/12/25 14:00:49;;;;;;;2.90;2.70;;;;;;;;;;5040046;27;20245;-58
2022/12/25 14:03:18;;;;;;;2.45;2.25;;;;;;;;;;5039826;27;20209;-58
2022/12/25 14:05:44;;;;;;;2.63;2.53;;;;;;;;;;5039637;28;20538;-58
2022/12/25 14:08:13;;;;;;;2.58;2.58;;;;;;;;;;5039587;28;20213;-58
2022/12/25 14:10:40;;;;;;;5.82;2.80;;;;;;;;;;5040129;28;20443;-58
2022/12/25 14:13:11;;;;;;;3.20;3.00;;;;;;;;;;5039688;28;20237;-58
2022/12/25 14:15:38;;;;;;;2.75;2.53;;;;;;;;;;5039432;28;20233;-58
2022/12/25 14:18:05;;;;;;;5.85;2.90;;;;;;;;;;5039378;28;20209;-58
2022/12/25 14:20:33;;;;;;;3.65;2.88;;;;;;;;;;5039682;28;20397;-58
2022/12/25 14:23:00;;;;;;;3.42;2.90;;;;;;;;;;5039874;28;20209;-58
2022/12/25 14:25:29;;;;;;;2.92;2.63;;;;;;;;;;5039554;28;20213;-59
2022/12/25 14:27:55;;;;;;;2.95;2.70;;;;;;;;;;5039684;28;20233;-58
2022/12/25 14:30:24;;;;;;;2.65;2.53;;;;;;;;;;5039369;28;20258;-59
2022/12/25 14:32:54;;;;;;;2.63;2.47;;;;;;;;;;5039923;27;20210;-59
2022/12/25 14:35:20;;;;;;;2.90;2.53;;;;;;;;;;5039421;28;20213;-59
2022/12/25 14:37:49;;;;;;;2.70;2.42;;;;;;;;;;5039762;27;20409;-58
2022/12/25 14:40:21;;;;;;;2.50;2.40;;;;;;;;;;5039679;27;20237;-58
2022/12/25 14:42:54;;;;;;;3.22;2.55;;;;;;;;;;5039323;28;20464;-58
2022/12/25 14:45:26;;;;;;;2.95;2.67;;;;;;;;;;5039265;27;20205;-58
2022/12/25 14:47:53;;;;;;;3.55;3.33;;;;;;;;;;5039439;27;20231;-58
2022/12/25 14:50:25;;;;;;;3.13;2.92;;;;;;;;;;5039173;28;20218;-58
2022/12/25 14:52:51;;;;;;;3.33;3.03;;;;;;;;;;5039421;27;20412;-58
2022/12/25 14:55:18;;;;;;;3.53;3.22;;;;;;;;;;5039349;27;20239;-58
2022/12/25 14:57:47;;;;;;;3.55;3.28;;;;;;;;;;5039428;27;20255;-58
2022/12/25 15:00:21;;;;;;;3.17;2.97;;;;;;;;;;5039572;27;20251;-58
2022/12/25 15:02:49;;;;;;;3.22;2.92;;;;;;;;;;5039196;27;20251;-58
2022/12/25 15:05:23;;;;;;;4.20;3.00;;;;;;;;;;5035595;28;20535;-58
2022/12/25 15:07:57;;;;;;;2.83;2.72;;;;;;;;;;5035913;28;20516;-58
2022/12/25 15:10:23;;;;;;;4.20;3.10;;;;;;;;;;5035766;28;20206;-58
2022/12/25 15:12:50;;;;;;;3.00;2.80;;;;;;;;;;5036093;28;20239;-58
2022/12/25 15:15:16;;;;;;;3.17;2.88;;;;;;;;;;5035567;28;20251;-58
2022/12/25 15:17:42;;;;;;;3.35;3.13;;;;;;;;;;5036204;28;20210;-58
2022/12/25 15:20:11;;;;;;;2.83;2.63;;;;;;;;;;5035487;28;20217;-58
2022/12/25 15:22:38;;;;;;;3.47;3.28;;;;;;;;;;5036260;28;20445;-58
2022/12/25 15:25:04;;;;;;;4.50;4.20;;;;;;;;;;5035992;28;20501;-58
2022/12/25 15:27:30;;;;;;;6.97;3.88;;;;;;;;;;5035782;28;20218;-58
2022/12/25 15:29:57;;;;;;;4.35;4.05;;;;;;;;;;5035344;28;20457;-58
2022/12/25 15:32:24;;;;;;;6.05;4.60;;;;;;;;;;5035639;28;20273;-58
2022/12/25 15:34:50;;;;;;;7.07;5.35;;;;;;;;;;5035228;28;20210;-58
2022/12/25 15:37:18;;;;;;;5.75;5.18;;;;;;;;;;5035607;28;20513;-58
2022/12/25 15:39:44;;;;;;;7.07;5.57;;;;;;;;;;5035298;28;20210;-57
2022/12/25 15:42:11;;;;;;;6.22;5.57;;;;;;;;;;5035538;28;20614;-58
2022/12/25 15:44:38;;;;;;;7.75;5.40;;;;;;;;;;5035474;28;20216;-58
2022/12/25 15:47:04;;;;;;;5.68;4.97;;;;;;;;;;5035353;28;20261;-58
2022/12/25 15:49:30;;;;;;;8.18;5.32;;;;;;;;;;5035653;28;20255;-69
2022/12/25 15:51:56;;;;;;;6.00;4.97;;;;;;;;;;5035757;28;20226;-68
2022/12/25 15:54:24;;;;;;;5.88;5.07;;;;;;;;;;5035211;28;20214;-68
2022/12/25 15:56:51;;;;;;;6.18;5.53;;;;;;;;;;5035436;28;20206;-68
2022/12/25 15:59:18;;;;;;;6.13;4.70;;;;;;;;;;5035148;28;20479;-68
2022/12/25 16:01:46;;;;;;;5.75;4.95;;;;;;;;;;5035387;28;20247;-68
2022/12/25 16:04:13;;;;;;;6.05;4.63;;;;;;;;;;5035159;28;20217;-68
2022/12/25 16:06:39;;;;;;;5.50;4.53;;;;;;;;;;5035134;28;20474;-68
2022/12/25 16:09:05;;;;;;;4.38;4.03;;;;;;;;;;5034772;28;20270;-68
2022/12/25 16:11:33;;;;;;;4.57;4.22;;;;;;;;;;5035300;28;20292;-68
2022/12/25 16:13:59;;;;;;;4.60;4.20;;;;;;;;;;5035059;28;20474;-68
2022/12/25 16:16:25;;;;;;;4.45;4.03;;;;;;;;;;5034488;28;20241;-68
2022/12/25 16:18:51;;;;;;;4.60;4.30;;;;;;;;;;5034965;28;20255;-68
2022/12/25 16:21:19;;;;;;;4.00;3.60;;;;;;;;;;5034920;28;20285;-68
2022/12/25 16:23:45;;;;;;;4.05;3.72;;;;;;;;;;5034734;28;20211;-68
2022/12/25 16:26:11;;;;;;;4.93;4.03;;;;;;;;;;5034717;28;20258;-68
2022/12/25 16:28:39;;;;;;;5.47;4.72;;;;;;;;;;5034394;28;20317;-68
2022/12/25 16:31:05;;;;;;;5.10;4.70;;;;;;;;;;5034892;28;20210;-68
2022/12/25 16:33:32;;;;;;;8.50;4.60;;;;;;;;;;5034464;28;20454;-68
2022/12/25 16:35:58;;;;;;;5.97;4.70;;;;;;;;;;5034557;28;20558;-68